Time;durP1;ratioP1;P1;durP2;ratioP2;P2;SDS_P1;SDS_P2;PMS_P1;PMS_P2;Temp;Humidity;BMP_temperature;BMP_pressure;BME280_temperature;BME280_humidity;BME280_pressure;Samples;Min_cycle;Max_cycle;Signal;HPM_P1;HPM_P2
2023/10/20 00:00:26;;;;;;;5.35;3.90;;;;;;;14.96;55.62;98216.28;4999400;28;20116;-84
2023/10/20 00:02:56;;;;;;;5.70;4.18;;;;;;;14.93;55.78;98197.50;4996255;28;20062;-85
2023/10/20 00:05:25;;;;;;;5.90;4.40;;;;;;;14.96;56.06;98206.13;5008364;28;20047;-84
2023/10/20 00:07:54;;;;;;;6.28;4.07;;;;;;;14.95;55.82;98203.59;5006285;28;20106;-83
2023/10/20 00:10:22;;;;;;;4.78;3.55;;;;;;;14.95;55.74;98196.19;4998833;28;20042;-84
2023/10/20 00:12:50;;;;;;;5.05;3.63;;;;;;;14.96;55.90;98186.84;4999690;28;20089;-84
2023/10/20 00:15:20;;;;;;;7.68;4.28;;;;;;;14.98;55.96;98187.47;4997617;28;20034;-83
2023/10/20 00:17:48;;;;;;;6.07;3.63;;;;;;;14.97;55.90;98177.53;4998747;28;20398;-84
2023/10/20 00:20:17;;;;;;;4.75;3.50;;;;;;;14.99;55.95;98180.91;4996990;28;20053;-83
2023/10/20 00:22:46;;;;;;;4.78;3.30;;;;;;;15.02;55.70;98179.56;4997785;28;20054;-84
2023/10/20 00:25:14;;;;;;;5.03;3.47;;;;;;;15.02;55.68;98176.81;4997769;28;21060;-84
2023/10/20 00:27:42;;;;;;;6.05;3.80;;;;;;;14.99;55.68;98167.13;4997951;28;20092;-84
2023/10/20 00:30:11;;;;;;;5.63;3.88;;;;;;;15.03;55.93;98170.25;4995646;28;20057;-84
2023/10/20 00:32:40;;;;;;;6.18;3.70;;;;;;;15.04;56.07;98177.44;4998604;28;20410;-84
2023/10/20 00:35:10;;;;;;;5.65;3.53;;;;;;;15.04;55.98;98181.03;5014791;28;20072;-83
2023/10/20 00:37:38;;;;;;;5.53;3.92;;;;;;;15.04;55.91;98170.03;4996785;28;20037;-84
2023/10/20 00:40:11;;;;;;;6.03;3.50;;;;;;;15.08;56.05;98178.69;4998568;28;20050;-84
2023/10/20 00:42:39;;;;;;;5.38;3.80;;;;;;;15.07;55.45;98165.97;4996841;28;20046;-83
2023/10/20 00:45:08;;;;;;;5.40;3.45;;;;;;;15.07;55.75;98163.22;4993510;28;20517;-83
2023/10/20 00:47:38;;;;;;;5.32;3.88;;;;;;;15.08;55.61;98156.66;4993683;28;20049;-85
2023/10/20 00:50:11;;;;;;;4.75;3.47;;;;;;;15.08;55.82;98148.38;4999085;28;20072;-83
2023/10/20 00:52:43;;;;;;;5.43;3.50;;;;;;;15.09;55.78;98133.53;5000102;28;20046;-84
2023/10/20 00:55:15;;;;;;;4.55;3.50;;;;;;;15.09;56.08;98137.13;4994541;28;20422;-83
2023/10/20 00:57:45;;;;;;;5.55;3.95;;;;;;;15.10;56.25;98119.50;5018008;28;20091;-84
2023/10/20 01:00:17;;;;;;;6.05;4.20;;;;;;;15.08;55.74;98116.19;4993509;28;20054;-84
2023/10/20 01:02:51;;;;;;;5.57;4.03;;;;;;;15.09;55.89;98106.00;4996766;28;20042;-84
2023/10/20 01:05:22;;;;;;;6.10;4.18;;;;;;;15.09;56.19;98106.81;4992568;28;20042;-84
2023/10/20 01:07:51;;;;;;;5.65;3.88;;;;;;;15.07;55.74;98092.44;4993194;28;20049;-83
2023/10/20 01:10:23;;;;;;;5.93;4.28;;;;;;;15.10;56.38;98094.72;4995485;28;20049;-83
2023/10/20 01:12:52;;;;;;;5.90;3.95;;;;;;;15.08;55.87;98085.88;4996010;28;20051;-85
2023/10/20 01:15:20;;;;;;;5.75;3.80;;;;;;;15.08;56.17;98085.88;4996069;28;20078;-84
2023/10/20 01:17:48;;;;;;;5.85;4.10;;;;;;;15.09;56.36;98079.25;5011775;28;20078;-85
2023/10/20 01:20:16;;;;;;;5.07;3.75;;;;;;;15.08;56.21;98074.00;4994972;28;20050;-84
2023/10/20 01:22:44;;;;;;;5.90;4.10;;;;;;;15.09;55.93;98082.03;4998740;28;20050;-84
2023/10/20 01:25:14;;;;;;;4.70;3.20;;;;;;;15.11;56.12;98070.78;4995352;28;20143;-85
2023/10/20 01:27:42;;;;;;;5.28;3.90;;;;;;;15.08;56.17;98066.59;4996528;28;20111;-84
2023/10/20 01:30:11;;;;;;;5.13;3.90;;;;;;;15.08;55.99;98055.56;4993514;28;20050;-84
2023/10/20 01:32:41;;;;;;;5.63;3.90;;;;;;;15.13;56.10;98063.97;4995652;28;20086;-84
2023/10/20 01:35:10;;;;;;;4.80;3.25;;;;;;;15.10;56.10;98055.31;4997904;28;20172;-85
2023/10/20 01:37:38;;;;;;;4.35;3.22;;;;;;;15.12;56.28;98055.94;4998898;28;20046;-84
2023/10/20 01:40:08;;;;;;;4.80;3.75;;;;;;;15.12;56.31;98059.53;5017444;28;20058;-86
2023/10/20 01:42:38;;;;;;;5.63;3.47;;;;;;;15.12;56.36;98051.28;5006232;28;20077;-85
2023/10/20 01:45:09;;;;;;;4.45;3.30;;;;;;;15.13;56.41;98052.94;5010771;28;20155;-86
2023/10/20 01:47:37;;;;;;;4.80;3.20;;;;;;;15.12;56.10;98045.75;5011429;28;20042;-86
2023/10/20 01:50:06;;;;;;;5.15;3.33;;;;;;;15.15;56.40;98058.25;5004558;28;20510;-84
2023/10/20 01:52:34;;;;;;;4.50;3.28;;;;;;;15.14;56.21;98057.41;5002602;28;20038;-84
2023/10/20 01:55:02;;;;;;;5.68;3.50;;;;;;;15.14;56.39;98043.63;5000433;28;20041;-84
2023/10/20 01:57:30;;;;;;;4.40;3.50;;;;;;;15.16;56.43;98045.31;4999143;28;20218;-86
2023/10/20 02:00:01;;;;;;;4.82;3.17;;;;;;;15.17;56.17;98038.72;5000363;28;20154;-84
2023/10/20 02:02:38;;;;;;;4.05;2.70;;;;;;;15.17;56.43;98038.72;5003256;28;20049;-84
2023/10/20 02:05:09;;;;;;;5.57;3.47;;;;;;;15.17;56.26;98024.94;4998530;28;20043;-84
2023/10/20 02:07:38;;;;;;;4.70;3.28;;;;;;;15.16;56.04;98029.63;5000583;28;20057;-85
2023/10/20 02:10:07;;;;;;;4.82;3.00;;;;;;;15.17;56.12;98016.69;5001467;28;20058;-85
2023/10/20 02:12:35;;;;;;;4.38;2.90;;;;;;;15.17;56.32;98011.19;4997678;28;20097;-84
2023/10/20 02:15:07;;;;;;;4.40;3.13;;;;;;;15.17;56.22;98006.50;5016000;28;20153;-83
2023/10/20 02:17:36;;;;;;;4.57;3.00;;;;;;;15.12;56.47;98009.94;5000279;28;20065;-84
2023/10/20 02:20:05;;;;;;;4.50;3.13;;;;;;;15.16;55.93;97999.31;4997872;28;20053;-84
2023/10/20 02:22:33;;;;;;;4.65;2.88;;;;;;;15.14;56.17;97990.44;5000326;28;20046;-84
2023/10/20 02:25:01;;;;;;;5.05;3.03;;;;;;;15.16;56.25;97984.69;5002214;28;20053;-84
2023/10/20 02:27:29;;;;;;;4.03;2.72;;;;;;;15.16;55.96;97966.25;5000330;28;20406;-84
2023/10/20 02:29:58;;;;;;;4.50;2.92;;;;;;;15.18;56.50;97977.06;4995993;28;20078;-84
2023/10/20 02:32:27;;;;;;;4.68;3.00;;;;;;;15.21;55.96;97965.53;4998100;28;20059;-84
2023/10/20 02:34:56;;;;;;;3.88;2.70;;;;;;;15.18;56.37;97964.09;5002643;28;20148;-85
2023/10/20 02:37:24;;;;;;;3.75;2.45;;;;;;;15.19;56.27;97964.94;5000560;28;20141;-85
2023/10/20 02:39:52;;;;;;;3.85;2.67;;;;;;;15.19;56.11;97946.50;4998829;28;20039;-84
2023/10/20 02:42:20;;;;;;;4.38;2.50;;;;;;;15.18;56.48;97944.00;5018363;28;20096;-85
2023/10/20 02:44:48;;;;;;;3.05;2.15;;;;;;;15.20;56.21;97947.31;5001650;28;20101;-84
2023/10/20 02:47:16;;;;;;;2.97;2.00;;;;;;;15.20;56.43;97928.03;5000227;28;20097;-85
2023/10/20 02:49:45;;;;;;;3.40;2.40;;;;;;;15.21;56.16;97924.22;4999034;28;20109;-84
2023/10/20 02:52:13;;;;;;;3.45;2.20;;;;;;;15.19;55.98;97929.13;4999857;28;20049;-84
2023/10/20 02:54:42;;;;;;;3.55;2.03;;;;;;;15.20;56.58;97922.53;5000907;28;20129;-84
2023/10/20 02:57:10;;;;;;;4.00;2.42;;;;;;;15.19;56.34;97909.84;5000395;28;20077;-86
2023/10/20 02:59:38;;;;;;;3.33;2.20;;;;;;;15.19;56.18;97907.06;5001491;28;20078;-85
2023/10/20 03:02:06;;;;;;;4.30;2.20;;;;;;;15.18;56.27;97897.16;5000273;28;20856;-85
2023/10/20 03:04:34;;;;;;;3.53;2.10;;;;;;;15.18;56.35;97900.72;5001442;28;20065;-85
2023/10/20 03:07:04;;;;;;;2.72;1.88;;;;;;;15.19;55.75;97899.66;5003808;28;20899;-85
2023/10/20 03:09:32;;;;;;;4.35;2.03;;;;;;;15.18;55.95;97897.16;5001160;28;20617;-85
2023/10/20 03:12:00;;;;;;;3.97;2.13;;;;;;;15.16;56.38;97885.53;5008394;28;20080;-84
2023/10/20 03:14:27;;;;;;;2.33;1.48;;;;;;;15.18;56.44;97859.41;5005421;28;20061;-84
2023/10/20 03:16:55;;;;;;;2.47;1.65;;;;;;;15.19;55.89;97846.47;5000396;28;20096;-84
2023/10/20 03:22:49;;;;;;;3.13;1.95;;;;;;;15.14;56.28;97839.78;4980460;28;20091;-84
2023/10/20 03:25:18;;;;;;;3.38;1.70;;;;;;;15.16;55.95;97842.28;5008954;28;20316;-85
2023/10/20 03:27:46;;;;;;;2.30;1.60;;;;;;;15.18;56.01;97851.13;5008125;28;20053;-84
2023/10/20 03:30:15;;;;;;;3.20;1.90;;;;;;;15.18;56.20;97850.34;5005743;28;20054;-85
2023/10/20 03:32:43;;;;;;;3.30;1.55;;;;;;;15.19;56.39;97846.47;5003995;28;20053;-85
2023/10/20 03:35:12;;;;;;;2.28;1.70;;;;;;;15.19;56.13;97841.81;5007542;28;20054;-84
2023/10/20 03:37:40;;;;;;;2.50;1.40;;;;;;;15.19;56.24;97840.97;5006968;28;20838;-85
2023/10/20 03:40:13;;;;;;;2.60;1.55;;;;;;;15.21;56.03;97834.16;5001788;28;20046;-84
2023/10/20 03:42:44;;;;;;;2.63;1.52;;;;;;;15.19;56.36;97825.28;4998541;28;20038;-86
2023/10/20 03:45:14;;;;;;;3.72;1.73;;;;;;;15.19;55.84;97819.75;5001830;28;20054;-84
2023/10/20 03:47:43;;;;;;;2.60;1.70;;;;;;;15.20;56.24;97835.22;4999847;28;20046;-86
2023/10/20 03:50:17;;;;;;;2.25;1.40;;;;;;;15.19;56.40;97844.56;5001520;28;20069;-86
2023/10/20 03:52:48;;;;;;;2.85;1.60;;;;;;;15.21;55.81;97828.63;5015314;28;20081;-85
2023/10/20 03:55:18;;;;;;;2.25;1.60;;;;;;;15.22;56.21;97799.19;5002072;28;20125;-85
2023/10/20 03:57:47;;;;;;;2.22;1.48;;;;;;;15.22;55.77;97777.13;5000375;28;20054;-86
2023/10/20 04:00:21;;;;;;;2.30;1.52;;;;;;;15.24;56.04;97778.59;5003834;28;20046;-85
2023/10/20 04:02:51;;;;;;;2.58;1.50;;;;;;;15.25;55.76;97783.03;5000091;28;20046;-85
2023/10/20 04:05:22;;;;;;;3.85;1.60;;;;;;;15.26;55.80;97775.59;5001185;28;20053;-85
2023/10/20 04:07:50;;;;;;;2.80;1.55;;;;;;;15.26;55.90;97778.34;4998808;28;20106;-85
2023/10/20 04:10:20;;;;;;;2.20;1.40;;;;;;;15.28;56.22;97778.94;4998488;28;20105;-85
2023/10/20 04:12:49;;;;;;;2.88;1.77;;;;;;;15.26;55.57;97773.66;4997909;28;20483;-86
2023/10/20 04:15:19;;;;;;;2.42;1.50;;;;;;;15.27;55.94;97769.81;4996640;28;20080;-85
2023/10/20 04:17:52;;;;;;;2.05;1.40;;;;;;;15.30;55.80;97758.34;4993206;28;20474;-85
2023/10/20 04:20:21;;;;;;;2.60;1.30;;;;;;;15.28;55.84;97752.22;4999852;28;20148;-84
2023/10/20 04:22:52;;;;;;;2.95;1.75;;;;;;;15.30;56.03;97768.50;4998786;28;20144;-86
2023/10/20 04:25:23;;;;;;;2.75;1.60;;;;;;;15.31;56.10;97756.41;4996591;28;20035;-85
2023/10/20 04:27:57;;;;;;;2.53;1.50;;;;;;;15.29;56.10;97755.81;4997322;28;20047;-84
2023/10/20 04:52:55;;;;;;;2.80;1.50;;;;;;;15.30;55.59;97661.91;4946713;28;20112;-84
2023/10/20 04:58:16;;;;;;;2.60;1.52;;;;;;;15.34;55.58;97651.28;4946679;28;20057;-84
2023/10/20 05:00:45;;;;;;;2.20;1.50;;;;;;;15.33;55.36;97647.66;5000943;28;20137;-84
2023/10/20 05:06:05;;;;;;;2.35;1.40;;;;;;;15.33;55.27;97622.84;4998447;28;20627;-84
2023/10/20 05:08:33;;;;;;;1.73;1.17;;;;;;;15.34;55.50;97627.28;4989932;28;20042;-83
2023/10/20 05:11:01;;;;;;;2.38;1.20;;;;;;;15.35;55.42;97625.38;4985428;28;20161;-85
2023/10/20 05:13:32;;;;;;;2.35;1.40;;;;;;;15.36;55.73;97616.88;4986593;28;20068;-84
2023/10/20 05:16:00;;;;;;;2.55;1.40;;;;;;;15.36;55.44;97618.78;5003259;28;20583;-84
2023/10/20 05:18:29;;;;;;;1.70;1.20;;;;;;;15.35;55.30;97604.16;4987201;28;20053;-84
2023/10/20 05:21:04;;;;;;;2.38;1.30;;;;;;;15.36;55.25;97603.09;4988808;28;20165;-84
2023/10/20 05:23:33;;;;;;;2.53;1.42;;;;;;;15.35;55.55;97612.44;4987138;28;20192;-84
2023/10/20 05:26:02;;;;;;;2.30;1.30;;;;;;;15.36;55.38;97616.03;4986179;28;20576;-84
2023/10/20 05:28:31;;;;;;;2.05;1.10;;;;;;;15.36;55.47;97603.09;4984555;28;20065;-84
2023/10/20 05:30:59;;;;;;;3.03;1.40;;;;;;;15.35;55.33;97598.66;4988930;28;20136;-84
2023/10/20 05:33:27;;;;;;;2.05;1.30;;;;;;;15.34;55.35;97591.47;5003717;28;20069;-85
2023/10/20 05:36:01;;;;;;;2.50;1.30;;;;;;;15.37;55.62;97581.88;4986803;28;20050;-84
2023/10/20 05:38:29;;;;;;;1.83;1.10;;;;;;;15.34;55.74;97566.66;4987335;28;20053;-86
2023/10/20 05:40:59;;;;;;;3.13;1.33;;;;;;;15.36;55.66;97566.44;4989014;28;20112;-87
2023/10/20 05:43:29;;;;;;;2.25;1.30;;;;;;;15.36;55.74;97572.78;4991395;28;20068;-86
2023/10/20 05:46:00;;;;;;;1.58;1.10;;;;;;;15.37;55.50;97582.72;4987694;28;20053;-85
2023/10/20 05:48:27;;;;;;;1.27;1.05;;;;;;;15.35;55.56;97579.38;4991239;28;20053;-86
2023/10/20 05:50:57;;;;;;;2.65;1.20;;;;;;;15.34;55.29;97594.22;5005081;28;20116;-87
2023/10/20 05:53:25;;;;;;;2.40;1.30;;;;;;;15.30;55.68;97604.03;4996245;28;20042;-86
2023/10/20 05:55:54;;;;;;;1.90;0.95;;;;;;;15.30;55.27;97595.78;5001956;28;20038;-87
2023/10/20 05:58:23;;;;;;;2.33;1.20;;;;;;;15.28;55.35;97584.16;4993103;28;20415;-87
2023/10/20 06:00:51;;;;;;;2.70;1.20;;;;;;;15.26;55.71;97580.78;4990908;28;20050;-90
2023/10/20 06:03:32;;;;;;;2.03;1.25;;;;;;;15.26;55.74;97578.03;4993684;28;20125;-90
2023/10/20 06:06:03;;;;;;;1.90;1.10;;;;;;;15.21;55.45;97568.84;4992142;28;20133;-90
2023/10/20 06:08:34;;;;;;;1.90;1.13;;;;;;;15.18;55.82;97556.38;4993394;28;20038;-91
2023/10/20 06:11:11;;;;;;;2.80;1.10;;;;;;;15.17;56.08;97557.50;4993262;28;20073;-88
2023/10/20 06:13:41;;;;;;;2.13;1.05;;;;;;;15.13;55.72;97554.38;4989714;28;20065;-90
2023/10/20 06:16:11;;;;;;;3.60;1.70;;;;;;;15.15;56.19;97559.66;4994450;28;20046;-90
2023/10/20 06:18:44;;;;;;;2.10;1.10;;;;;;;15.15;56.33;97548.63;4994587;28;20069;-90
2023/10/20 06:21:18;;;;;;;2.15;1.30;;;;;;;15.11;56.00;97533.66;4994131;28;20046;-90
2023/10/20 06:23:52;;;;;;;2.50;1.27;;;;;;;15.09;56.46;97530.34;4993118;28;20046;-90
2023/10/20 06:26:31;;;;;;;2.30;1.42;;;;;;;15.07;56.40;97538.84;4994740;28;20043;-90
2023/10/20 06:29:02;;;;;;;2.38;1.30;;;;;;;15.04;56.23;97536.56;4999436;28;20073;-90
2023/10/20 06:31:42;;;;;;;2.38;1.30;;;;;;;15.06;56.49;97536.31;4993768;28;20045;-89
2023/10/20 06:34:23;;;;;;;2.70;1.40;;;;;;;15.01;56.62;97552.75;4994646;28;20088;-89
2023/10/20 06:36:59;;;;;;;2.53;1.20;;;;;;;14.97;56.39;97554.31;4992828;28;20053;-89
2023/10/20 06:39:28;;;;;;;2.50;1.23;;;;;;;14.96;56.73;97563.63;4995606;28;20042;-91
2023/10/20 06:42:00;;;;;;;2.45;1.40;;;;;;;14.92;56.57;97566.06;5005236;28;20054;-90
2023/10/20 06:45:08;;;;;;;2.60;1.40;;;;;;;14.95;57.20;97556.44;5005295;28;20046;-90
2023/10/20 06:48:37;;;;;;;2.00;1.25;;;;;;;14.92;57.04;97549.53;5029152;28;20033;-92
2023/10/20 06:51:38;;;;;;;2.80;1.40;;;;;;;14.92;57.27;97556.97;5013908;28;20054;-90
2023/10/20 06:54:16;;;;;;;2.13;1.30;;;;;;;14.92;57.35;97557.78;4995369;28;20288;-89
2023/10/20 06:56:54;;;;;;;2.95;1.48;;;;;;;14.87;57.15;97551.31;4998077;28;20425;-88
2023/10/20 06:59:22;;;;;;;3.40;1.80;;;;;;;14.87;56.91;97556.81;4992202;28;20113;-88
2023/10/20 07:01:56;;;;;;;2.30;1.40;;;;;;;14.86;57.02;97557.91;4994357;28;20042;-88
2023/10/20 07:04:25;;;;;;;2.58;1.50;;;;;;;14.85;56.94;97556.25;4992897;28;20146;-89
2023/10/20 07:06:57;;;;;;;2.90;1.50;;;;;;;14.84;57.23;97554.56;4994234;28;20143;-88
2023/10/20 07:09:26;;;;;;;2.55;1.70;;;;;;;14.80;56.97;97545.94;4991844;28;20038;-88
2023/10/20 07:11:54;;;;;;;3.03;1.60;;;;;;;14.80;57.04;97545.94;4992389;28;20272;-88
2023/10/20 07:14:23;;;;;;;4.55;1.95;;;;;;;14.77;57.44;97551.94;4995233;28;20062;-88
2023/10/20 07:16:51;;;;;;;3.00;1.58;;;;;;;14.74;57.21;97535.91;4995787;28;20060;-87
2023/10/20 07:19:19;;;;;;;2.78;1.70;;;;;;;14.74;57.20;97542.25;4994807;28;20060;-85
2023/10/20 07:21:50;;;;;;;2.83;1.45;;;;;;;14.73;57.57;97545.25;4994553;28;20144;-86
2023/10/20 07:24:19;;;;;;;3.08;1.63;;;;;;;14.71;57.63;97531.72;5007247;28;20086;-87
2023/10/20 07:26:47;;;;;;;3.08;1.70;;;;;;;14.69;57.62;97542.13;5007586;28;20046;-87
2023/10/20 07:29:17;;;;;;;2.47;1.60;;;;;;;14.68;57.66;97539.66;4988986;28;20050;-88
2023/10/20 07:31:47;;;;;;;3.63;1.80;;;;;;;14.66;57.96;97531.63;4994512;28;20065;-88
2023/10/20 07:34:15;;;;;;;2.15;1.50;;;;;;;14.65;57.61;97537.38;4990567;28;20120;-87
2023/10/20 07:36:46;;;;;;;4.22;1.92;;;;;;;14.65;57.73;97537.38;4989594;28;20137;-88
2023/10/20 07:39:17;;;;;;;3.15;1.60;;;;;;;14.64;57.94;97530.19;4990328;28;20053;-88
2023/10/20 07:41:47;;;;;;;2.60;1.65;;;;;;;14.63;57.70;97526.59;4990382;28;20051;-88
2023/10/20 07:44:18;;;;;;;3.58;1.98;;;;;;;14.61;57.96;97525.97;4990465;28;20336;-87
2023/10/20 07:46:46;;;;;;;3.60;1.95;;;;;;;14.59;58.29;97530.06;4990286;28;20050;-87
2023/10/20 07:49:15;;;;;;;3.08;2.08;;;;;;;14.57;58.02;97524.81;4988005;28;20130;-87
2023/10/20 07:51:44;;;;;;;4.13;1.90;;;;;;;14.56;58.23;97530.53;4989789;28;20390;-88
2023/10/20 07:54:14;;;;;;;3.33;2.08;;;;;;;14.54;57.90;97533.53;4990024;28;20128;-87
2023/10/20 07:56:42;;;;;;;3.97;2.17;;;;;;;14.55;58.15;97535.22;4988481;28;20149;-87
2023/10/20 07:59:12;;;;;;;3.20;1.60;;;;;;;14.54;58.13;97527.19;4986556;28;20188;-87
2023/10/20 08:01:40;;;;;;;4.13;2.10;;;;;;;14.53;58.46;97522.75;4989726;28;20533;-86
2023/10/20 08:04:08;;;;;;;3.35;1.88;;;;;;;14.53;58.14;97533.78;4990611;28;20065;-87
2023/10/20 08:06:37;;;;;;;3.47;1.88;;;;;;;14.53;58.36;97536.53;4992628;28;20080;-85
2023/10/20 08:09:07;;;;;;;4.03;2.03;;;;;;;14.53;58.30;97540.13;4995675;28;20052;-86
2023/10/20 08:11:35;;;;;;;3.17;1.63;;;;;;;14.51;58.22;97536.78;4989745;28;20068;-87
2023/10/20 08:14:05;;;;;;;3.05;1.80;;;;;;;14.53;58.96;97537.34;4990887;28;20050;-87
2023/10/20 08:16:34;;;;;;;3.15;1.80;;;;;;;14.55;58.79;97528.88;4989408;28;20062;-86
2023/10/20 08:19:02;;;;;;;3.00;1.80;;;;;;;14.54;58.48;97533.53;4990065;28;20053;-86
2023/10/20 08:21:30;;;;;;;4.10;2.00;;;;;;;14.55;58.95;97548.97;4989008;28;20889;-87
2023/10/20 08:23:59;;;;;;;3.88;2.10;;;;;;;14.57;58.73;97549.56;5007041;28;20622;-86
2023/10/20 08:26:27;;;;;;;3.10;2.00;;;;;;;14.56;59.03;97561.66;4991271;28;20385;-87
2023/10/20 08:28:55;;;;;;;3.83;2.10;;;;;;;14.56;58.95;97569.06;4994989;28;20073;-87
2023/10/20 08:31:25;;;;;;;3.38;2.00;;;;;;;14.58;59.05;97556.75;5007671;28;20084;-86
2023/10/20 08:33:55;;;;;;;3.35;2.10;;;;;;;14.59;59.15;97552.09;5004785;28;20046;-86
2023/10/20 08:36:23;;;;;;;3.45;1.95;;;;;;;14.58;59.07;97553.16;5001534;28;20046;-86
2023/10/20 08:38:52;;;;;;;4.57;2.17;;;;;;;14.63;59.17;97562.38;4990518;28;20089;-86
2023/10/20 08:41:23;;;;;;;4.53;2.13;;;;;;;14.63;59.10;97564.28;4990513;28;20085;-88
2023/10/20 08:43:52;;;;;;;3.25;2.00;;;;;;;14.62;58.69;97557.09;4988863;28;20062;-86
2023/10/20 08:46:22;;;;;;;3.45;2.20;;;;;;;14.64;59.12;97574.22;4987559;28;20050;-86
2023/10/20 08:48:50;;;;;;;5.22;2.55;;;;;;;14.63;58.75;97565.13;4990862;28;20057;-86
2023/10/20 08:51:20;;;;;;;4.00;2.53;;;;;;;14.66;58.97;97567.41;5004796;28;20542;-87
2023/10/20 08:53:48;;;;;;;4.90;2.63;;;;;;;14.65;58.95;97560.22;4991707;28;20137;-86
2023/10/20 08:56:16;;;;;;;4.00;2.40;;;;;;;14.65;58.80;97557.47;4990136;28;20078;-87
2023/10/20 08:58:48;;;;;;;5.57;2.80;;;;;;;14.67;59.35;97549.81;4989893;28;20046;-86
2023/10/20 09:01:16;;;;;;;4.38;2.72;;;;;;;14.68;58.90;97561.66;4990445;28;20061;-86
2023/10/20 09:03:46;;;;;;;4.38;2.63;;;;;;;14.69;58.81;97558.66;4991694;28;20787;-86
2023/10/20 09:06:15;;;;;;;4.10;2.85;;;;;;;14.69;59.03;97566.91;4997422;28;20061;-87
2023/10/20 09:08:47;;;;;;;4.38;2.65;;;;;;;14.72;59.03;97565.59;4993479;28;20044;-87
2023/10/20 09:11:15;;;;;;;5.22;2.95;;;;;;;14.66;59.26;97555.56;4998450;28;20057;-87
2023/10/20 09:13:44;;;;;;;5.38;3.00;;;;;;;14.70;58.98;97562.22;4993836;28;20039;-87
2023/10/20 09:16:15;;;;;;;6.50;2.90;;;;;;;14.71;58.82;97561.16;4995120;28;20809;-87
2023/10/20 09:18:46;;;;;;;5.40;2.95;;;;;;;14.72;59.20;97565.59;4996823;28;20068;-87
2023/10/20 09:21:15;;;;;;;4.32;2.78;;;;;;;14.71;59.20;97563.91;5001701;28;20046;-87
2023/10/20 09:23:55;;;;;;;4.40;3.00;;;;;;;14.71;59.29;97547.41;5009863;28;20046;-87
2023/10/20 09:26:25;;;;;;;6.15;3.05;;;;;;;14.69;59.15;97557.81;5001342;28;20561;-86
2023/10/20 09:28:54;;;;;;;5.35;3.10;;;;;;;14.68;59.19;97551.47;4994272;28;20042;-87
2023/10/20 09:31:24;;;;;;;5.15;2.80;;;;;;;14.69;59.15;97558.66;4996230;28;20114;-86
2023/10/20 09:33:53;;;;;;;4.30;3.15;;;;;;;14.69;59.29;97555.06;4995770;28;20072;-85
2023/10/20 09:36:22;;;;;;;4.40;2.78;;;;;;;14.69;59.37;97557.81;4995990;28;20452;-87
2023/10/20 09:38:53;;;;;;;5.32;2.95;;;;;;;14.70;59.09;97556.72;5000186;28;20045;-85
2023/10/20 09:41:24;;;;;;;4.35;2.95;;;;;;;14.70;59.56;97559.47;4995302;28;20049;-87
2023/10/20 09:43:54;;;;;;;5.38;3.17;;;;;;;14.67;59.28;97557.22;4997153;28;20046;-88
2023/10/20 09:46:41;;;;;;;5.22;3.30;;;;;;;14.70;59.91;97565.81;4995285;28;20528;-87
2023/10/20 09:49:15;;;;;;;4.38;2.90;;;;;;;14.71;59.40;97555.66;4997704;28;20050;-86
2023/10/20 09:51:45;;;;;;;4.93;3.20;;;;;;;14.72;58.93;97566.44;4992782;28;20109;-86
2023/10/20 09:54:15;;;;;;;4.43;3.00;;;;;;;14.73;59.24;97564.53;4995262;28;20593;-86
2023/10/20 09:56:46;;;;;;;5.53;3.58;;;;;;;14.73;59.44;97553.50;4996048;28;20050;-86
2023/10/20 09:59:20;;;;;;;5.53;3.63;;;;;;;14.75;59.03;97570.63;4994872;28;20117;-87
2023/10/20 10:01:49;;;;;;;4.82;3.28;;;;;;;14.71;59.46;97555.66;4998635;28;20045;-86
2023/10/20 10:04:25;;;;;;;5.03;3.20;;;;;;;14.76;59.84;97556.59;5017197;28;20161;-89
2023/10/20 10:06:53;;;;;;;5.22;3.33;;;;;;;14.74;59.59;97560.69;5006816;28;20437;-88
2023/10/20 10:09:21;;;;;;;5.32;2.78;;;;;;;14.76;59.41;97562.09;4994186;28;20972;-87
2023/10/20 10:11:55;;;;;;;3.92;2.75;;;;;;;14.80;59.50;97565.22;5001475;28;20034;-87
2023/10/20 10:14:25;;;;;;;4.97;3.20;;;;;;;14.78;59.37;97559.13;5011263;28;20084;-87
2023/10/20 10:16:56;;;;;;;5.22;3.22;;;;;;;14.81;59.49;97549.53;5012306;28;20054;-86
2023/10/20 10:19:28;;;;;;;4.68;3.03;;;;;;;14.80;59.28;97542.34;5012411;28;20050;-86
2023/10/20 10:22:01;;;;;;;5.07;3.08;;;;;;;14.81;59.17;97546.78;4998501;28;20047;-86
2023/10/20 10:24:31;;;;;;;4.93;3.40;;;;;;;14.85;59.38;97545.25;5013318;28;20037;-86
2023/10/20 10:27:04;;;;;;;4.07;2.90;;;;;;;14.83;59.31;97542.72;4998854;28;20050;-86
2023/10/20 10:29:51;;;;;;;5.35;2.95;;;;;;;14.84;59.44;97535.31;5000244;28;20052;-89
2023/10/20 10:32:20;;;;;;;4.90;3.08;;;;;;;14.81;59.14;97525.59;4999946;28;20062;-87
2023/10/20 10:34:52;;;;;;;5.93;3.50;;;;;;;14.86;59.34;97525.69;5001184;28;20042;-88
2023/10/20 10:37:34;;;;;;;5.38;3.50;;;;;;;14.88;59.24;97520.81;5001836;28;20104;-89
2023/10/20 10:40:08;;;;;;;4.30;3.28;;;;;;;14.88;59.35;97509.78;5001774;28;20489;-87
2023/10/20 10:42:40;;;;;;;5.07;3.63;;;;;;;14.93;59.08;97503.56;4998181;28;20514;-85
2023/10/20 10:45:19;;;;;;;4.95;3.33;;;;;;;14.93;59.19;97487.84;5013059;28;20102;-86
2023/10/20 10:47:48;;;;;;;4.45;3.10;;;;;;;14.93;59.34;97485.09;5001666;28;21007;-86
2023/10/20 10:50:19;;;;;;;4.53;2.90;;;;;;;14.94;59.10;97477.69;5001953;28;20038;-86
2023/10/20 10:52:48;;;;;;;5.18;3.25;;;;;;;14.93;59.53;97479.59;4999146;28;20086;-86
2023/10/20 10:55:19;;;;;;;6.32;3.33;;;;;;;14.97;59.54;97478.03;4998008;28;20062;-86
2023/10/20 10:57:48;;;;;;;4.15;2.97;;;;;;;15.02;58.91;97477.28;4998951;28;20118;-85
2023/10/20 11:00:18;;;;;;;4.10;3.10;;;;;;;15.03;59.28;97473.47;4998395;28;20054;-86
2023/10/20 11:02:47;;;;;;;5.68;3.45;;;;;;;15.04;59.06;97464.97;5000371;28;20129;-86
2023/10/20 11:05:16;;;;;;;4.10;2.90;;;;;;;15.08;59.41;97463.41;4999218;28;20074;-85
2023/10/20 11:07:56;;;;;;;4.80;3.03;;;;;;;15.12;59.31;97464.56;4999847;28;20050;-86
2023/10/20 11:10:27;;;;;;;3.65;2.55;;;;;;;15.12;59.12;97458.22;4999348;28;20050;-85
2023/10/20 11:12:58;;;;;;;3.90;2.47;;;;;;;15.16;59.04;97461.31;4999072;28;20046;-86
2023/10/20 11:15:29;;;;;;;4.50;2.80;;;;;;;15.16;59.13;97447.56;5001141;28;20062;-86
2023/10/20 11:17:58;;;;;;;5.65;3.03;;;;;;;15.19;58.61;97441.53;5001042;28;20046;-85
2023/10/20 11:20:27;;;;;;;5.25;3.30;;;;;;;15.22;58.58;97432.78;4998245;28;20128;-86
2023/10/20 11:22:58;;;;;;;4.15;2.70;;;;;;;15.21;58.97;97426.44;5001337;28;21140;-85
2023/10/20 11:25:27;;;;;;;5.25;3.03;;;;;;;15.21;58.46;97425.59;4998164;28;20101;-86
2023/10/20 11:27:57;;;;;;;7.75;2.55;;;;;;;15.22;58.66;97413.50;4999995;28;20124;-86
2023/10/20 11:30:26;;;;;;;4.07;2.72;;;;;;;15.24;58.58;97416.84;4999135;28;20060;-86
2023/10/20 11:32:55;;;;;;;4.00;2.85;;;;;;;15.21;58.63;97412.66;5000907;28;20065;-85
2023/10/20 11:35:25;;;;;;;4.35;2.63;;;;;;;15.24;58.54;97416.84;4999270;28;20413;-86
2023/10/20 11:37:54;;;;;;;4.18;2.95;;;;;;;15.24;58.31;97427.88;4998324;28;20047;-86
2023/10/20 11:40:23;;;;;;;3.95;2.70;;;;;;;15.23;58.51;97413.25;4995560;28;20077;-86
2023/10/20 11:42:52;;;;;;;4.25;2.95;;;;;;;15.25;58.24;97413.03;4993915;28;20178;-86
2023/10/20 11:45:21;;;;;;;3.45;2.58;;;;;;;15.25;58.22;97407.50;4989680;28;20133;-87
2023/10/20 11:47:50;;;;;;;5.13;2.88;;;;;;;15.25;58.50;97404.75;4986746;28;20157;-87
2023/10/20 11:50:19;;;;;;;4.25;2.55;;;;;;;15.24;58.02;97403.09;4989205;28;20116;-86
2023/10/20 11:52:49;;;;;;;4.82;2.80;;;;;;;15.26;57.98;97401.72;4996004;28;20042;-86
2023/10/20 11:55:18;;;;;;;4.70;3.17;;;;;;;15.23;57.85;97396.72;4993562;28;20046;-87
2023/10/20 11:57:46;;;;;;;4.32;2.78;;;;;;;15.24;57.99;97392.91;5007452;28;20054;-87
2023/10/20 12:00:14;;;;;;;3.90;2.78;;;;;;;15.25;57.76;97394.56;5014051;28;20046;-87
2023/10/20 12:02:44;;;;;;;4.15;2.65;;;;;;;15.25;57.91;97393.75;5019602;28;20114;-86
2023/10/20 12:05:12;;;;;;;4.00;2.83;;;;;;;15.24;58.00;97394.81;4996756;28;20054;-86
2023/10/20 12:07:40;;;;;;;4.15;2.75;;;;;;;15.24;57.93;97397.56;4995587;28;20088;-85
2023/10/20 12:10:09;;;;;;;3.90;2.75;;;;;;;15.21;57.81;97389.78;5000061;28;20035;-85
2023/10/20 12:12:38;;;;;;;3.85;2.83;;;;;;;15.22;58.19;97388.72;4998740;28;20119;-86
2023/10/20 12:15:08;;;;;;;4.05;3.10;;;;;;;15.22;57.73;97383.19;4997771;28;20043;-86
2023/10/20 12:17:36;;;;;;;4.43;3.25;;;;;;;15.20;57.99;97386.19;4996126;28;20034;-87
2023/10/20 12:20:09;;;;;;;3.88;2.90;;;;;;;15.22;58.04;97383.19;4998879;28;20077;-87